全部
Porta Westfalica Airport EDVY 天气
There is no TAF data available at EDVY or any nearby airports.
There is no METAR data available at EDVY. Showing METAR data for ETHB (10 mi E).
ETHB近期METAR历史数据(EDVY无数据)
| Date | Time (CEST) | Flight Rules | Wind Dir. | Speed | Type | Height AGL (ft) | Visibility | Temp (°C) | Temp (°F) | Dew Point (°C) | Dew Point (°F) | Rel. Humid. | Pressure | Density Altitude | Remarks |
|---|---|---|---|---|---|---|---|---|---|---|---|---|---|---|---|
| 03-五月 | 01:20 | VFR | 80° | 3 kt | 10000 meters | 16° | 60° | 11° | 51° | 72% | 1014 mb | 327 ft | |||
| 03-五月 | 00:20 | VFR | 280° | 9 kt | 10000 meters | 18° | 64° | 11° | 51° | 64% | 1015 mb | 537 ft | |||
| 02-五月 | 23:20 | VFR | 270° | 6 kt | 10000 meters | 17° | 62° | 11° | 51° | 68% | 1014 mb | 447 ft | |||
| 02-五月 | 22:20 | VFR | 160° | 5 kt | 10000 meters | 17° | 62° | 11° | 51° | 68% | 1014 mb | 447 ft | |||
| 02-五月 | 21:20 | VFR | 170° | 3 kt | 10000 meters | 18° | 64° | 11° | 51° | 64% | 1014 mb | 567 ft | |||
| 02-五月 | 20:20 | VFR | 140° | 2 kt | 10000 meters | 21° | 69° | 11° | 51° | 53% | 1014 mb | 927 ft | |||
| 02-五月 | 19:20 | VFR | 290° | 6 kt | 10000 meters | 24° | 75° | 9° | 48° | 38% | 1014 mb | 1,287 ft | |||
| 02-五月 | 18:20 | VFR | 270° | 9 kt | 10000 meters | 25° | 77° | 8° | 46° | 34% | 1015 mb | 1,377 ft | |||
| 02-五月 | 17:20 | VFR | 250° | 9 kt | 10000 meters | 25° | 77° | 8° | 46° | 34% | 1015 mb | 1,377 ft | |||
| 02-五月 | 16:20 | VFR | 250° | 11 kt | 10000 meters | 26° | 78° | 7° | 44° | 30% | 1015 mb | 1,497 ft | |||
| 02-五月 | 15:20 | VFR | 220° | 9 kt | 10000 meters | 26° | 78° | 6° | 42° | 28% | 1016 mb | 1,468 ft | |||
| 02-五月 | 14:20 | VFR | 190° | 8 kt | 10000 meters | 25° | 77° | 5° | 41° | 28% | 1017 mb | 1,318 ft | |||
| 02-五月 | 13:20 | VFR | 190° | 7 kt | 10000 meters | 24° | 75° | 5° | 41° | 29% | 1018 mb | 1,168 ft | |||
| 02-五月 | 12:20 | VFR | 190° | 8 kt | 10000 meters | 23° | 73° | 5° | 41° | 31% | 1018 mb | 1,048 ft | |||
| 02-五月 | 11:20 | VFR | 180° | 8 kt | 10000 meters | 22° | 71° | 4° | 39° | 31% | 1019 mb | 899 ft | |||
| 02-五月 | 10:20 | VFR | 180° | 13 kt | 10000 meters | 20° | 68° | 5° | 41° | 37% | 1019 mb | 659 ft | |||
| 02-五月 | 09:20 | VFR | 180° | 12 kt | 10000 meters | 18° | 64° | 4° | 39° | 39% | 1019 mb | 419 ft | |||
| 02-五月 | 08:20 | VFR | 170° | 12 kt | 10000 meters | 17° | 62° | 3° | 37° | 39% | 1019 mb | 299 ft | |||
| 02-五月 | 07:20 | VFR | 180° | 11 kt | 10000 meters | 15° | 59° | 4° | 39° | 48% | 1020 mb | 29 ft | |||
| 02-五月 | 06:20 | VFR | 180° | 10 kt | 10000 meters | 14° | 57° | 4° | 39° | 51% | 1020 mb | -91 ft | |||
| 02-五月 | 05:20 | VFR | 170° | 9 kt | 10000 meters | 14° | 57° | 4° | 39° | 51% | 1020 mb | -91 ft | |||
| 02-五月 | 04:20 | VFR | 170° | 9 kt | 10000 meters | 13° | 55° | 4° | 39° | 54% | 1021 mb | -240 ft | |||
| 02-五月 | 03:20 | VFR | 170° | 7 kt | 10000 meters | 12° | 53° | 4° | 39° | 58% | 1021 mb | -360 ft | |||
| 02-五月 | 02:20 | VFR | 10° | 1 kt | 10000 meters | 14° | 57° | 4° | 39° | 51% | 1022 mb | -150 ft |
登录
| 您的浏览器不支持. 升级您的浏览器 |
